Thursday, September 20, 2018, 8:40 AM EDT
Back to Local

KPWM, Portland International Jetport

Location: Portland, ME, United States Lat: 43.65
Local Time: 8:40 AM EDT (12:40 GMT) Lon: -70.3
Time Zone: US/Eastern Elev: 75 ft

Show me the last for .
Show Decoded

2018-09-20 08:25 METAR KPWM 201225Z 07007KT 050V120 10SM BKN014 OVC043 14/12 A3025 RMK AO2
                 T01390117 =
2018-09-20 07:51 METAR KPWM 201151Z 05009KT 10SM SCT018 OVC050 14/12 A3025 RMK AO2 PRESRR SLP243
                 60007 70007 T01390117 10150 20133 53022 =
2018-09-20 06:51 METAR KPWM 201051Z VRB05KT 10SM BKN010 BKN018 OVC028 13/13 A3022 RMK AO2 SLP232
                 T01330128 =
2018-09-20 05:51 METAR KPWM 200951Z VRB04KT 10SM BKN014 OVC027 14/13 A3020 RMK AO2 RAE08 SLP225
                 P0001 T01390128 =
2018-09-20 05:30 METAR KPWM 200930Z VRB06KT 10SM FEW010 BKN014 OVC027 14/13 A3019 RMK AO2 RAE08
                 P0001 T01390128 =
2018-09-20 04:59 METAR KPWM 200859Z 05009KT 1 3/4SM -RA BR BKN004 OVC012 13/13 A3018 RMK AO2
                 P0001 T01330128 =
2018-09-20 04:51 METAR KPWM 200851Z 06004KT 1 3/4SM -RA BR BKN006 OVC010 13/13 A3018 RMK AO2
                 RAB0756 SLP220 P0004 60006 T01330133 51009 =
2018-09-20 04:33 METAR KPWM 200833Z AUTO VRB04KT 2 1/2SM -RA BR BKN006 BKN010 OVC015 13/13 A3019
                 RMK AO2 RAB0756 P0003 T01330133 =
2018-09-20 04:29 METAR KPWM 200829Z AUTO VRB05KT 3SM -RA BR SCT006 BKN010 OVC023 13/13 A3019 RMK
                 AO2 RAB0756 P0002 T01330133 =
2018-09-20 04:17 METAR KPWM 200817Z AUTO VRB05KT 4SM -RA BR BKN008 BKN015 OVC021 13/13 A3019 RMK
                 AO2 RAB0756 P0001 T01330133 =
2018-09-20 04:09 METAR KPWM 200809Z AUTO 02007KT 340V050 3SM -RA BR SCT008 BKN013 OVC022 13/13
                 A3019 RMK AO2 RAB0756 P0000 T01330133 =
2018-09-20 04:05 METAR KPWM 200805Z AUTO 04008KT 2 1/2SM -RA BR SCT007 SCT013 OVC022 13/13 A3018
                 RMK AO2 RAB0756 P0000 T01330133 =
2018-09-20 03:51 METAR KPWM 200751Z AUTO VRB06KT 10SM SCT009 SCT015 OVC024 14/13 A3017 RMK AO2
                 RAE11 SLP218 P0001 T01390133 =
2018-09-20 03:13 METAR KPWM 200713Z AUTO 10007KT 050V120 6SM BR FEW008 SCT018 OVC022 14/13 A3017
                 RMK AO2 RAE11 P0001 T01390133 =
2018-09-20 02:58 METAR KPWM 200658Z AUTO 07008KT 020V100 4SM -RA BR BKN008 BKN011 OVC024 14/13
                 A3017 RMK AO2 P0000 T01390133 =
2018-09-20 02:51 METAR KPWM 200651Z AUTO 10007KT 060V130 3SM -RA BR SCT008 BKN011 OVC024 14/13
                 A3017 RMK AO2 RAB26 SLP215 P0001 T01390133 =
2018-09-20 02:41 METAR KPWM 200641Z AUTO 11010KT 4SM -RA BR SCT008 OVC013 14/13 A3017 RMK AO2
                 RAB26 P0001 T01390133 =
2018-09-20 02:33 METAR KPWM 200633Z AUTO 09009KT 4SM -RA BR BKN008 OVC013 14/13 A3017 RMK AO2
                 RAB26 P0000 T01390128 =
2018-09-20 02:30 METAR KPWM 200630Z AUTO 09008KT 6SM -RA BR OVC013 14/13 A3017 RMK AO2 RAB26
                 P0000 T01440128 =
2018-09-20 02:03 METAR KPWM 200603Z AUTO VRB06KT 10SM BKN016 BKN032 OVC050 15/12 A3016 RMK AO2
                 T01500122 =
2018-09-20 01:51 METAR KPWM 200551Z AUTO VRB06KT 10SM SCT017 BKN031 OVC050 14/12 A3016 RMK AO2
                 SLP211 T01440122 10161 20144 51009 =
2018-09-20 00:51 METAR KPWM 200451Z 03008KT 10SM OVC048 14/12 A3015 RMK AO2 SLP209 T01440122
                 401830139 =
2018-09-19 23:51 METAR KPWM 200351Z 04008KT 10SM OVC046 15/12 A3014 RMK AO2 SLP206 LAST T01500122
                 =
2018-09-19 22:51 METAR KPWM 200251Z 03007KT 10SM OVC046 16/13 A3013 RMK AO2 SLP202 T01560128
                 51014 =
2018-09-19 21:51 METAR KPWM 200151Z 04009KT 10SM OVC048 16/12 A3012 RMK AO2 SLP199 T01560122 =
2018-09-19 20:51 METAR KPWM 200051Z VRB05KT 10SM OVC055 16/12 A3012 RMK AO2 SLP198 T01560122 =
2018-09-19 19:51 METAR KPWM 192351Z 05009KT 030V100 10SM OVC050 16/12 A3009 RMK AO2 SLP188
                 T01610117 10183 20161 51026 =
2018-09-19 18:51 METAR KPWM 192251Z VRB06KT 10SM OVC055 16/12 A3006 RMK AO2 SLP180 T01610117 =
2018-09-19 18:02 METAR KPWM 192202Z VRB06KT 10SM SCT026 BKN036 OVC050 17/12 A3006 RMK AO2
                 T01720122 =
2018-09-19 17:51 METAR KPWM 192151Z VRB04KT 10SM BKN029 BKN034 17/13 A3005 RMK AO2 SLP176
                 T01720128 =
2018-09-19 16:51 METAR KPWM 192051Z 09007KT 10SM BKN029 BKN200 17/13 A3001 RMK AO2 SLP162
                 T01720128 53006 =
2018-09-19 15:51 METAR KPWM 191951Z 06010KT 10SM BKN026 OVC050 18/12 A3000 RMK AO2 SLP157
                 T01780122 =
2018-09-19 14:51 METAR KPWM 191851Z 05005KT 10SM BKN026 OVC049 18/13 A3000 RMK AO2 SLP157
                 T01780128 =
2018-09-19 13:51 METAR KPWM 191751Z 06006KT 10SM BKN026 OVC049 18/13 A2999 RMK AO2 SLP155
                 T01830128 10183 20139 58002 =
2018-09-19 12:51 METAR KPWM 191651Z 08006KT 10SM BKN023 BKN050 18/13 A3000 RMK AO2 SLP158
                 T01780128 =
2018-09-19 11:51 METAR KPWM 191551Z 05007KT 10SM FEW020 OVC021 17/12 A3000 RMK AO2 SLP159
                 T01670122 =
2018-09-19 10:51 METAR KPWM 191451Z 07006KT 10SM OVC022 16/12 A3000 RMK AO2 SLP157 T01610122
                 53019 =
2018-09-19 09:51 METAR KPWM 191351Z 05009KT 10SM BKN017 OVC028 16/12 A2997 RMK AO2 SLP149 SUN
                 DMLY VSBL T01610122 =
2018-09-19 08:51 METAR KPWM 191251Z VRB06KT 10SM FEW013 OVC026 15/12 A2996 RMK AO2 SLP145
                 T01500122 =

Support USWX by starting your Amazon purchase here.